sensor_id;sensor_type;location;lat;lon;timestamp;P1;durP1;ratioP1;P2;durP2;ratioP2
23155;SDS011;11746;50.876;4.246;2023-06-19T00:00:19;4.78;;;2.97;;
23155;SDS011;11746;50.876;4.246;2023-06-19T00:02:45;4.68;;;2.90;;
23155;SDS011;11746;50.876;4.246;2023-06-19T00:05:11;3.88;;;2.63;;
23155;SDS011;11746;50.876;4.246;2023-06-19T00:07:38;4.82;;;2.80;;
23155;SDS011;11746;50.876;4.246;2023-06-19T00:10:05;4.30;;;2.50;;
23155;SDS011;11746;50.876;4.246;2023-06-19T00:12:31;5.00;;;2.50;;
23155;SDS011;11746;50.876;4.246;2023-06-19T00:14:58;6.20;;;3.10;;
23155;SDS011;11746;50.876;4.246;2023-06-19T00:17:24;5.50;;;2.80;;
23155;SDS011;11746;50.876;4.246;2023-06-19T00:19:52;5.75;;;2.80;;
23155;SDS011;11746;50.876;4.246;2023-06-19T00:22:18;4.32;;;2.45;;
23155;SDS011;11746;50.876;4.246;2023-06-19T00:24:44;4.22;;;2.97;;
23155;SDS011;11746;50.876;4.246;2023-06-19T00:27:10;4.97;;;2.88;;
23155;SDS011;11746;50.876;4.246;2023-06-19T00:29:36;4.40;;;2.65;;
23155;SDS011;11746;50.876;4.246;2023-06-19T00:32:02;4.95;;;3.08;;
23155;SDS011;11746;50.876;4.246;2023-06-19T00:34:29;4.90;;;3.00;;
23155;SDS011;11746;50.876;4.246;2023-06-19T00:36:56;5.10;;;3.20;;
23155;SDS011;11746;50.876;4.246;2023-06-19T00:39:23;6.70;;;3.20;;
23155;SDS011;11746;50.876;4.246;2023-06-19T00:41:53;6.72;;;3.22;;
23155;SDS011;11746;50.876;4.246;2023-06-19T00:44:19;6.05;;;3.25;;
23155;SDS011;11746;50.876;4.246;2023-06-19T00:46:45;4.93;;;2.92;;
23155;SDS011;11746;50.876;4.246;2023-06-19T00:49:13;3.72;;;2.90;;
23155;SDS011;11746;50.876;4.246;2023-06-19T00:51:39;7.47;;;3.15;;
23155;SDS011;11746;50.876;4.246;2023-06-19T00:54:05;3.78;;;2.83;;
23155;SDS011;11746;50.876;4.246;2023-06-19T00:56:32;5.45;;;3.40;;
23155;SDS011;11746;50.876;4.246;2023-06-19T00:59:00;5.47;;;3.25;;
23155;SDS011;11746;50.876;4.246;2023-06-19T01:01:31;5.65;;;3.20;;
23155;SDS011;11746;50.876;4.246;2023-06-19T01:03:57;6.53;;;4.00;;
23155;SDS011;11746;50.876;4.246;2023-06-19T01:06:25;5.72;;;3.55;;
23155;SDS011;11746;50.876;4.246;2023-06-19T01:09:04;5.07;;;3.47;;
23155;SDS011;11746;50.876;4.246;2023-06-19T01:11:37;7.93;;;3.63;;
23155;SDS011;11746;50.876;4.246;2023-06-19T01:14:18;4.68;;;3.25;;
23155;SDS011;11746;50.876;4.246;2023-06-19T01:16:48;4.88;;;3.35;;
23155;SDS011;11746;50.876;4.246;2023-06-19T01:19:23;7.43;;;3.65;;
23155;SDS011;11746;50.876;4.246;2023-06-19T01:21:51;7.80;;;3.85;;
23155;SDS011;11746;50.876;4.246;2023-06-19T01:24:17;9.30;;;4.55;;
23155;SDS011;11746;50.876;4.246;2023-06-19T01:26:43;7.60;;;3.70;;
23155;SDS011;11746;50.876;4.246;2023-06-19T01:29:15;5.63;;;3.70;;
23155;SDS011;11746;50.876;4.246;2023-06-19T01:31:50;4.60;;;3.78;;
23155;SDS011;11746;50.876;4.246;2023-06-19T01:34:22;6.13;;;3.85;;
23155;SDS011;11746;50.876;4.246;2023-06-19T01:36:52;7.68;;;3.92;;
23155;SDS011;11746;50.876;4.246;2023-06-19T01:39:22;6.03;;;4.03;;
23155;SDS011;11746;50.876;4.246;2023-06-19T01:41:49;14.80;;;4.03;;
23155;SDS011;11746;50.876;4.246;2023-06-19T01:44:16;6.45;;;4.20;;
23155;SDS011;11746;50.876;4.246;2023-06-19T01:46:43;7.28;;;4.28;;
23155;SDS011;11746;50.876;4.246;2023-06-19T01:49:14;6.35;;;3.70;;
23155;SDS011;11746;50.876;4.246;2023-06-19T01:51:40;6.82;;;4.25;;
23155;SDS011;11746;50.876;4.246;2023-06-19T01:54:05;8.82;;;4.30;;
23155;SDS011;11746;50.876;4.246;2023-06-19T01:56:32;7.50;;;4.20;;
23155;SDS011;11746;50.876;4.246;2023-06-19T01:58:58;6.90;;;4.40;;
23155;SDS011;11746;50.876;4.246;2023-06-19T02:01:24;8.05;;;4.97;;
23155;SDS011;11746;50.876;4.246;2023-06-19T02:03:50;6.28;;;4.00;;
23155;SDS011;11746;50.876;4.246;2023-06-19T02:06:17;8.57;;;4.80;;
23155;SDS011;11746;50.876;4.246;2023-06-19T02:08:43;7.80;;;4.22;;
23155;SDS011;11746;50.876;4.246;2023-06-19T02:11:09;6.53;;;4.10;;
23155;SDS011;11746;50.876;4.246;2023-06-19T02:13:34;7.50;;;4.47;;
23155;SDS011;11746;50.876;4.246;2023-06-19T02:16:00;7.72;;;4.53;;
23155;SDS011;11746;50.876;4.246;2023-06-19T02:18:26;6.97;;;4.15;;
23155;SDS011;11746;50.876;4.246;2023-06-19T02:20:52;8.82;;;4.80;;
23155;SDS011;11746;50.876;4.246;2023-06-19T02:23:18;6.47;;;4.47;;
23155;SDS011;11746;50.876;4.246;2023-06-19T02:25:46;7.25;;;4.80;;
23155;SDS011;11746;50.876;4.246;2023-06-19T02:28:12;8.10;;;4.90;;
23155;SDS011;11746;50.876;4.246;2023-06-19T02:30:38;7.57;;;5.07;;
23155;SDS011;11746;50.876;4.246;2023-06-19T02:33:03;7.18;;;4.68;;
23155;SDS011;11746;50.876;4.246;2023-06-19T02:35:30;10.18;;;5.10;;
23155;SDS011;11746;50.876;4.246;2023-06-19T02:37:55;10.73;;;5.53;;
23155;SDS011;11746;50.876;4.246;2023-06-19T02:40:22;5.43;;;4.40;;
23155;SDS011;11746;50.876;4.246;2023-06-19T02:42:48;7.43;;;4.97;;
23155;SDS011;11746;50.876;4.246;2023-06-19T02:45:14;11.43;;;5.28;;
23155;SDS011;11746;50.876;4.246;2023-06-19T02:47:41;9.40;;;5.68;;
23155;SDS011;11746;50.876;4.246;2023-06-19T02:50:07;6.90;;;5.90;;
23155;SDS011;11746;50.876;4.246;2023-06-19T02:52:33;7.22;;;5.25;;
23155;SDS011;11746;50.876;4.246;2023-06-19T02:54:59;8.68;;;5.80;;
23155;SDS011;11746;50.876;4.246;2023-06-19T02:57:25;8.73;;;5.88;;
23155;SDS011;11746;50.876;4.246;2023-06-19T02:59:51;9.27;;;6.15;;
23155;SDS011;11746;50.876;4.246;2023-06-19T03:02:17;9.55;;;6.75;;
23155;SDS011;11746;50.876;4.246;2023-06-19T03:04:43;8.05;;;6.60;;
23155;SDS011;11746;50.876;4.246;2023-06-19T03:07:09;10.48;;;6.00;;
23155;SDS011;11746;50.876;4.246;2023-06-19T03:09:35;9.27;;;7.50;;
23155;SDS011;11746;50.876;4.246;2023-06-19T03:12:02;10.43;;;6.40;;
23155;SDS011;11746;50.876;4.246;2023-06-19T03:14:28;8.48;;;6.18;;
23155;SDS011;11746;50.876;4.246;2023-06-19T03:16:54;8.82;;;5.20;;
23155;SDS011;11746;50.876;4.246;2023-06-19T03:19:20;8.38;;;5.40;;
23155;SDS011;11746;50.876;4.246;2023-06-19T03:21:45;9.90;;;5.47;;
23155;SDS011;11746;50.876;4.246;2023-06-19T03:24:11;7.45;;;5.20;;
23155;SDS011;11746;50.876;4.246;2023-06-19T03:26:37;6.97;;;4.80;;
23155;SDS011;11746;50.876;4.246;2023-06-19T03:29:03;6.15;;;5.20;;
23155;SDS011;11746;50.876;4.246;2023-06-19T03:31:29;8.85;;;5.88;;
23155;SDS011;11746;50.876;4.246;2023-06-19T03:33:56;7.65;;;5.70;;
23155;SDS011;11746;50.876;4.246;2023-06-19T03:36:22;7.95;;;5.85;;
23155;SDS011;11746;50.876;4.246;2023-06-19T03:38:48;9.38;;;5.53;;
23155;SDS011;11746;50.876;4.246;2023-06-19T03:41:14;10.88;;;6.20;;
23155;SDS011;11746;50.876;4.246;2023-06-19T03:43:40;9.75;;;6.10;;
23155;SDS011;11746;50.876;4.246;2023-06-19T03:46:06;6.97;;;5.60;;
23155;SDS011;11746;50.876;4.246;2023-06-19T03:48:31;6.90;;;5.07;;
23155;SDS011;11746;50.876;4.246;2023-06-19T03:50:58;7.78;;;5.32;;
23155;SDS011;11746;50.876;4.246;2023-06-19T03:53:24;8.40;;;5.47;;
23155;SDS011;11746;50.876;4.246;2023-06-19T03:55:50;7.78;;;4.75;;
23155;SDS011;11746;50.876;4.246;2023-06-19T03:58:16;7.55;;;5.20;;
23155;SDS011;11746;50.876;4.246;2023-06-19T04:00:42;7.38;;;5.00;;
23155;SDS011;11746;50.876;4.246;2023-06-19T04:03:08;7.97;;;5.30;;
23155;SDS011;11746;50.876;4.246;2023-06-19T04:05:34;8.43;;;5.35;;
23155;SDS011;11746;50.876;4.246;2023-06-19T04:08:00;8.32;;;5.50;;
23155;SDS011;11746;50.876;4.246;2023-06-19T04:10:26;7.55;;;5.30;;
23155;SDS011;11746;50.876;4.246;2023-06-19T04:12:52;8.23;;;5.43;;
23155;SDS011;11746;50.876;4.246;2023-06-19T04:15:20;7.57;;;5.55;;
23155;SDS011;11746;50.876;4.246;2023-06-19T04:17:47;6.53;;;4.97;;
23155;SDS011;11746;50.876;4.246;2023-06-19T04:20:12;7.25;;;5.18;;
23155;SDS011;11746;50.876;4.246;2023-06-19T04:22:39;7.10;;;5.30;;
23155;SDS011;11746;50.876;4.246;2023-06-19T04:25:08;7.95;;;5.88;;
23155;SDS011;11746;50.876;4.246;2023-06-19T04:27:38;11.07;;;5.88;;
23155;SDS011;11746;50.876;4.246;2023-06-19T04:30:05;7.85;;;5.97;;
23155;SDS011;11746;50.876;4.246;2023-06-19T04:32:34;7.95;;;5.93;;
23155;SDS011;11746;50.876;4.246;2023-06-19T04:35:00;9.85;;;6.68;;
23155;SDS011;11746;50.876;4.246;2023-06-19T04:37:26;8.18;;;6.43;;
23155;SDS011;11746;50.876;4.246;2023-06-19T04:39:52;7.80;;;6.28;;
23155;SDS011;11746;50.876;4.246;2023-06-19T04:42:18;11.30;;;7.25;;
23155;SDS011;11746;50.876;4.246;2023-06-19T04:44:47;10.90;;;7.47;;
23155;SDS011;11746;50.876;4.246;2023-06-19T04:47:13;8.68;;;7.10;;
23155;SDS011;11746;50.876;4.246;2023-06-19T04:49:42;8.60;;;7.10;;
23155;SDS011;11746;50.876;4.246;2023-06-19T04:52:08;13.23;;;9.00;;
23155;SDS011;11746;50.876;4.246;2023-06-19T04:54:34;11.20;;;7.85;;
23155;SDS011;11746;50.876;4.246;2023-06-19T04:57:00;11.02;;;9.05;;
23155;SDS011;11746;50.876;4.246;2023-06-19T04:59:26;12.57;;;8.55;;
23155;SDS011;11746;50.876;4.246;2023-06-19T05:01:52;13.10;;;9.27;;
23155;SDS011;11746;50.876;4.246;2023-06-19T05:04:19;11.48;;;9.10;;
23155;SDS011;11746;50.876;4.246;2023-06-19T05:06:47;11.80;;;8.95;;
23155;SDS011;11746;50.876;4.246;2023-06-19T05:09:13;12.63;;;9.43;;
23155;SDS011;11746;50.876;4.246;2023-06-19T05:11:39;14.02;;;10.07;;
23155;SDS011;11746;50.876;4.246;2023-06-19T05:14:05;12.35;;;10.40;;
23155;SDS011;11746;50.876;4.246;2023-06-19T05:16:32;13.02;;;9.98;;
23155;SDS011;11746;50.876;4.246;2023-06-19T05:18:59;12.93;;;9.32;;
23155;SDS011;11746;50.876;4.246;2023-06-19T05:21:24;12.20;;;10.35;;
23155;SDS011;11746;50.876;4.246;2023-06-19T05:23:50;13.40;;;9.40;;
23155;SDS011;11746;50.876;4.246;2023-06-19T05:26:21;14.98;;;9.95;;
23155;SDS011;11746;50.876;4.246;2023-06-19T05:28:48;18.73;;;12.18;;
23155;SDS011;11746;50.876;4.246;2023-06-19T05:31:14;14.65;;;11.80;;
23155;SDS011;11746;50.876;4.246;2023-06-19T05:33:40;12.68;;;11.18;;
23155;SDS011;11746;50.876;4.246;2023-06-19T05:36:07;16.50;;;11.43;;
23155;SDS011;11746;50.876;4.246;2023-06-19T05:38:33;12.65;;;11.15;;
23155;SDS011;11746;50.876;4.246;2023-06-19T05:40:59;13.95;;;10.40;;
23155;SDS011;11746;50.876;4.246;2023-06-19T05:43:25;16.00;;;11.95;;
23155;SDS011;11746;50.876;4.246;2023-06-19T05:45:52;14.50;;;10.80;;
23155;SDS011;11746;50.876;4.246;2023-06-19T05:48:20;12.75;;;11.10;;
23155;SDS011;11746;50.876;4.246;2023-06-19T05:50:46;15.13;;;11.35;;
23155;SDS011;11746;50.876;4.246;2023-06-19T05:53:12;16.08;;;12.13;;
23155;SDS011;11746;50.876;4.246;2023-06-19T05:55:38;15.02;;;11.52;;
23155;SDS011;11746;50.876;4.246;2023-06-19T05:58:04;15.68;;;12.07;;
23155;SDS011;11746;50.876;4.246;2023-06-19T06:00:31;14.93;;;11.93;;
23155;SDS011;11746;50.876;4.246;2023-06-19T06:02:57;18.95;;;12.27;;
23155;SDS011;11746;50.876;4.246;2023-06-19T06:05:26;14.82;;;11.90;;
23155;SDS011;11746;50.876;4.246;2023-06-19T06:07:53;15.45;;;11.60;;
23155;SDS011;11746;50.876;4.246;2023-06-19T06:10:20;16.50;;;13.20;;
23155;SDS011;11746;50.876;4.246;2023-06-19T06:12:47;15.35;;;13.50;;
23155;SDS011;11746;50.876;4.246;2023-06-19T06:15:14;16.48;;;13.10;;
23155;SDS011;11746;50.876;4.246;2023-06-19T06:17:40;14.32;;;12.15;;
23155;SDS011;11746;50.876;4.246;2023-06-19T06:20:06;16.52;;;12.90;;
23155;SDS011;11746;50.876;4.246;2023-06-19T06:22:39;16.55;;;13.88;;
23155;SDS011;11746;50.876;4.246;2023-06-19T06:25:05;19.92;;;13.68;;
23155;SDS011;11746;50.876;4.246;2023-06-19T06:27:32;18.48;;;13.93;;
23155;SDS011;11746;50.876;4.246;2023-06-19T06:29:58;17.00;;;13.88;;
23155;SDS011;11746;50.876;4.246;2023-06-19T06:32:24;19.67;;;13.93;;
23155;SDS011;11746;50.876;4.246;2023-06-19T06:34:51;16.55;;;13.02;;
23155;SDS011;11746;50.876;4.246;2023-06-19T06:37:17;15.23;;;13.63;;
23155;SDS011;11746;50.876;4.246;2023-06-19T06:39:51;17.17;;;15.10;;
23155;SDS011;11746;50.876;4.246;2023-06-19T06:42:17;18.65;;;14.23;;
23155;SDS011;11746;50.876;4.246;2023-06-19T06:44:43;19.52;;;15.73;;
23155;SDS011;11746;50.876;4.246;2023-06-19T06:47:10;16.80;;;13.85;;
23155;SDS011;11746;50.876;4.246;2023-06-19T06:49:36;16.75;;;13.80;;
23155;SDS011;11746;50.876;4.246;2023-06-19T06:52:05;16.55;;;13.40;;
23155;SDS011;11746;50.876;4.246;2023-06-19T06:54:32;20.10;;;12.02;;
23155;SDS011;11746;50.876;4.246;2023-06-19T06:56:58;13.40;;;11.00;;
23155;SDS011;11746;50.876;4.246;2023-06-19T06:59:25;17.02;;;11.35;;
23155;SDS011;11746;50.876;4.246;2023-06-19T07:01:52;13.98;;;11.98;;
23155;SDS011;11746;50.876;4.246;2023-06-19T07:04:19;15.55;;;12.23;;
23155;SDS011;11746;50.876;4.246;2023-06-19T07:06:45;16.75;;;13.25;;
23155;SDS011;11746;50.876;4.246;2023-06-19T07:09:11;18.85;;;14.82;;
23155;SDS011;11746;50.876;4.246;2023-06-19T07:11:37;17.02;;;14.30;;
23155;SDS011;11746;50.876;4.246;2023-06-19T07:14:02;18.52;;;14.57;;
23155;SDS011;11746;50.876;4.246;2023-06-19T07:16:28;17.30;;;14.32;;
23155;SDS011;11746;50.876;4.246;2023-06-19T07:18:54;19.23;;;13.90;;
23155;SDS011;11746;50.876;4.246;2023-06-19T07:21:20;16.85;;;12.90;;
23155;SDS011;11746;50.876;4.246;2023-06-19T07:23:46;20.83;;;13.13;;
23155;SDS011;11746;50.876;4.246;2023-06-19T07:26:13;15.32;;;13.02;;
23155;SDS011;11746;50.876;4.246;2023-06-19T07:28:39;16.00;;;13.45;;
23155;SDS011;11746;50.876;4.246;2023-06-19T07:31:05;17.30;;;13.65;;
23155;SDS011;11746;50.876;4.246;2023-06-19T07:33:31;16.48;;;13.65;;
23155;SDS011;11746;50.876;4.246;2023-06-19T07:35:57;17.40;;;14.20;;
23155;SDS011;11746;50.876;4.246;2023-06-19T07:38:23;18.10;;;13.00;;
23155;SDS011;11746;50.876;4.246;2023-06-19T07:40:49;18.65;;;14.10;;
23155;SDS011;11746;50.876;4.246;2023-06-19T07:43:15;16.52;;;13.13;;
23155;SDS011;11746;50.876;4.246;2023-06-19T07:45:42;17.98;;;13.40;;
23155;SDS011;11746;50.876;4.246;2023-06-19T07:48:08;18.38;;;12.45;;
23155;SDS011;11746;50.876;4.246;2023-06-19T07:50:34;16.85;;;13.07;;
23155;SDS011;11746;50.876;4.246;2023-06-19T07:53:00;16.50;;;12.57;;
23155;SDS011;11746;50.876;4.246;2023-06-19T07:55:26;17.10;;;12.77;;
23155;SDS011;11746;50.876;4.246;2023-06-19T07:57:54;15.68;;;12.88;;
23155;SDS011;11746;50.876;4.246;2023-06-19T08:00:22;15.57;;;12.32;;
23155;SDS011;11746;50.876;4.246;2023-06-19T08:02:49;17.58;;;13.38;;
23155;SDS011;11746;50.876;4.246;2023-06-19T08:05:15;16.10;;;12.30;;
23155;SDS011;11746;50.876;4.246;2023-06-19T08:07:41;17.05;;;13.43;;
23155;SDS011;11746;50.876;4.246;2023-06-19T08:10:07;14.93;;;12.25;;
23155;SDS011;11746;50.876;4.246;2023-06-19T08:12:33;18.10;;;12.82;;
23155;SDS011;11746;50.876;4.246;2023-06-19T08:14:59;15.15;;;11.75;;
23155;SDS011;11746;50.876;4.246;2023-06-19T08:17:25;12.55;;;11.15;;
23155;SDS011;11746;50.876;4.246;2023-06-19T08:19:51;14.80;;;11.27;;
23155;SDS011;11746;50.876;4.246;2023-06-19T08:22:17;27.10;;;12.57;;
23155;SDS011;11746;50.876;4.246;2023-06-19T08:24:43;15.48;;;11.38;;
23155;SDS011;11746;50.876;4.246;2023-06-19T08:27:08;14.63;;;10.38;;
23155;SDS011;11746;50.876;4.246;2023-06-19T08:29:34;13.48;;;10.10;;
23155;SDS011;11746;50.876;4.246;2023-06-19T08:32:00;15.98;;;10.73;;
23155;SDS011;11746;50.876;4.246;2023-06-19T08:34:27;14.18;;;10.05;;
23155;SDS011;11746;50.876;4.246;2023-06-19T08:36:53;15.00;;;10.88;;
23155;SDS011;11746;50.876;4.246;2023-06-19T08:39:19;14.73;;;11.43;;
23155;SDS011;11746;50.876;4.246;2023-06-19T08:41:47;14.73;;;11.23;;
23155;SDS011;11746;50.876;4.246;2023-06-19T08:44:13;13.10;;;10.00;;
23155;SDS011;11746;50.876;4.246;2023-06-19T08:46:39;10.73;;;9.20;;
23155;SDS011;11746;50.876;4.246;2023-06-19T08:49:07;13.23;;;10.15;;
23155;SDS011;11746;50.876;4.246;2023-06-19T08:51:35;13.27;;;9.07;;
23155;SDS011;11746;50.876;4.246;2023-06-19T08:54:02;12.60;;;9.50;;
23155;SDS011;11746;50.876;4.246;2023-06-19T08:56:30;13.50;;;9.57;;
23155;SDS011;11746;50.876;4.246;2023-06-19T08:59:10;14.00;;;10.43;;
23155;SDS011;11746;50.876;4.246;2023-06-19T09:01:45;11.32;;;9.23;;
23155;SDS011;11746;50.876;4.246;2023-06-19T09:04:17;11.52;;;8.35;;
23155;SDS011;11746;50.876;4.246;2023-06-19T09:06:51;13.20;;;9.15;;
23155;SDS011;11746;50.876;4.246;2023-06-19T09:09:23;10.73;;;8.63;;
23155;SDS011;11746;50.876;4.246;2023-06-19T09:11:57;13.57;;;9.32;;
23155;SDS011;11746;50.876;4.246;2023-06-19T09:14:33;11.93;;;8.38;;
23155;SDS011;11746;50.876;4.246;2023-06-19T09:17:07;12.75;;;8.20;;
23155;SDS011;11746;50.876;4.246;2023-06-19T09:19:35;12.90;;;8.90;;
23155;SDS011;11746;50.876;4.246;2023-06-19T09:22:05;12.75;;;8.68;;
23155;SDS011;11746;50.876;4.246;2023-06-19T09:24:36;11.98;;;7.85;;
23155;SDS011;11746;50.876;4.246;2023-06-19T09:27:09;10.00;;;8.20;;
23155;SDS011;11746;50.876;4.246;2023-06-19T09:29:42;12.82;;;8.73;;
23155;SDS011;11746;50.876;4.246;2023-06-19T09:32:18;10.77;;;7.35;;
23155;SDS011;11746;50.876;4.246;2023-06-19T09:34:45;15.15;;;8.95;;
23155;SDS011;11746;50.876;4.246;2023-06-19T09:37:12;11.05;;;7.88;;
23155;SDS011;11746;50.876;4.246;2023-06-19T09:39:38;10.82;;;7.85;;
23155;SDS011;11746;50.876;4.246;2023-06-19T09:42:08;10.02;;;7.28;;
23155;SDS011;11746;50.876;4.246;2023-06-19T09:44:42;10.52;;;7.40;;
23155;SDS011;11746;50.876;4.246;2023-06-19T09:47:16;9.02;;;7.05;;
23155;SDS011;11746;50.876;4.246;2023-06-19T09:49:54;9.52;;;6.47;;
23155;SDS011;11746;50.876;4.246;2023-06-19T09:52:21;10.67;;;6.53;;
23155;SDS011;11746;50.876;4.246;2023-06-19T09:54:52;8.60;;;6.68;;
23155;SDS011;11746;50.876;4.246;2023-06-19T09:57:19;10.95;;;8.00;;
23155;SDS011;11746;50.876;4.246;2023-06-19T09:59:53;10.40;;;7.72;;
23155;SDS011;11746;50.876;4.246;2023-06-19T10:02:21;11.88;;;7.00;;
23155;SDS011;11746;50.876;4.246;2023-06-19T10:04:51;10.23;;;7.32;;
23155;SDS011;11746;50.876;4.246;2023-06-19T10:07:23;10.40;;;6.60;;
23155;SDS011;11746;50.876;4.246;2023-06-19T10:09:58;13.80;;;7.20;;
23155;SDS011;11746;50.876;4.246;2023-06-19T10:17:51;12.32;;;6.90;;
23155;SDS011;11746;50.876;4.246;2023-06-19T10:20:22;11.30;;;7.63;;
23155;SDS011;11746;50.876;4.246;2023-06-19T10:22:57;9.05;;;6.65;;
23155;SDS011;11746;50.876;4.246;2023-06-19T10:25:34;10.48;;;7.20;;
23155;SDS011;11746;50.876;4.246;2023-06-19T10:28:15;11.82;;;6.57;;
23155;SDS011;11746;50.876;4.246;2023-06-19T10:30:45;10.02;;;6.50;;
23155;SDS011;11746;50.876;4.246;2023-06-19T10:33:25;10.15;;;7.03;;
23155;SDS011;11746;50.876;4.246;2023-06-19T10:35:54;11.35;;;6.60;;
23155;SDS011;11746;50.876;4.246;2023-06-19T10:38:20;11.40;;;6.93;;
23155;SDS011;11746;50.876;4.246;2023-06-19T10:40:46;11.32;;;6.93;;
23155;SDS011;11746;50.876;4.246;2023-06-19T10:43:13;7.80;;;6.47;;
23155;SDS011;11746;50.876;4.246;2023-06-19T10:45:50;10.30;;;6.80;;
23155;SDS011;11746;50.876;4.246;2023-06-19T10:48:20;9.07;;;6.63;;
23155;SDS011;11746;50.876;4.246;2023-06-19T10:50:48;9.43;;;7.60;;
23155;SDS011;11746;50.876;4.246;2023-06-19T10:53:24;11.15;;;6.80;;
23155;SDS011;11746;50.876;4.246;2023-06-19T10:55:57;10.93;;;6.93;;
23155;SDS011;11746;50.876;4.246;2023-06-19T10:58:25;10.05;;;7.07;;
23155;SDS011;11746;50.876;4.246;2023-06-19T11:00:51;12.05;;;8.60;;
23155;SDS011;11746;50.876;4.246;2023-06-19T11:03:18;13.98;;;8.35;;
23155;SDS011;11746;50.876;4.246;2023-06-19T11:05:45;11.13;;;7.05;;
23155;SDS011;11746;50.876;4.246;2023-06-19T11:08:16;14.85;;;7.95;;
23155;SDS011;11746;50.876;4.246;2023-06-19T11:13:17;13.13;;;7.65;;
23155;SDS011;11746;50.876;4.246;2023-06-19T11:15:45;12.40;;;9.15;;
23155;SDS011;11746;50.876;4.246;2023-06-19T11:18:14;11.60;;;8.98;;
23155;SDS011;11746;50.876;4.246;2023-06-19T11:23:24;12.25;;;7.95;;
23155;SDS011;11746;50.876;4.246;2023-06-19T11:26:02;10.45;;;7.13;;
23155;SDS011;11746;50.876;4.246;2023-06-19T11:28:28;12.82;;;8.30;;
23155;SDS011;11746;50.876;4.246;2023-06-19T11:30:58;13.90;;;7.85;;
23155;SDS011;11746;50.876;4.246;2023-06-19T11:33:26;11.23;;;7.13;;
23155;SDS011;11746;50.876;4.246;2023-06-19T11:35:53;8.60;;;5.85;;
23155;SDS011;11746;50.876;4.246;2023-06-19T11:38:20;11.63;;;7.82;;
23155;SDS011;11746;50.876;4.246;2023-06-19T11:40:48;12.55;;;6.85;;
23155;SDS011;11746;50.876;4.246;2023-06-19T11:45:53;11.20;;;7.10;;
23155;SDS011;11746;50.876;4.246;2023-06-19T11:48:27;11.05;;;6.90;;
23155;SDS011;11746;50.876;4.246;2023-06-19T11:50:53;8.88;;;6.53;;
23155;SDS011;11746;50.876;4.246;2023-06-19T11:53:22;12.07;;;7.45;;
23155;SDS011;11746;50.876;4.246;2023-06-19T11:55:49;10.30;;;6.60;;
23155;SDS011;11746;50.876;4.246;2023-06-19T11:58:16;12.55;;;7.22;;
23155;SDS011;11746;50.876;4.246;2023-06-19T12:00:43;12.80;;;8.25;;
23155;SDS011;11746;50.876;4.246;2023-06-19T12:03:09;11.38;;;7.70;;
23155;SDS011;11746;50.876;4.246;2023-06-19T12:05:35;10.50;;;6.20;;
23155;SDS011;11746;50.876;4.246;2023-06-19T12:08:02;12.15;;;7.63;;
23155;SDS011;11746;50.876;4.246;2023-06-19T12:10:29;11.82;;;7.38;;
23155;SDS011;11746;50.876;4.246;2023-06-19T12:12:58;10.18;;;6.60;;
23155;SDS011;11746;50.876;4.246;2023-06-19T12:15:24;10.38;;;6.47;;
23155;SDS011;11746;50.876;4.246;2023-06-19T12:17:51;10.38;;;6.13;;
23155;SDS011;11746;50.876;4.246;2023-06-19T12:20:18;10.68;;;7.32;;
23155;SDS011;11746;50.876;4.246;2023-06-19T12:22:44;10.40;;;6.90;;
23155;SDS011;11746;50.876;4.246;2023-06-19T12:25:10;12.95;;;7.20;;
23155;SDS011;11746;50.876;4.246;2023-06-19T12:27:37;10.75;;;6.80;;
23155;SDS011;11746;50.876;4.246;2023-06-19T12:30:04;8.77;;;6.68;;
23155;SDS011;11746;50.876;4.246;2023-06-19T12:32:30;12.32;;;6.22;;
23155;SDS011;11746;50.876;4.246;2023-06-19T12:34:56;13.55;;;7.43;;
23155;SDS011;11746;50.876;4.246;2023-06-19T12:37:22;12.73;;;7.65;;
23155;SDS011;11746;50.876;4.246;2023-06-19T12:39:50;11.10;;;7.60;;
23155;SDS011;11746;50.876;4.246;2023-06-19T12:42:16;11.60;;;7.15;;
23155;SDS011;11746;50.876;4.246;2023-06-19T12:44:42;8.88;;;6.95;;
23155;SDS011;11746;50.876;4.246;2023-06-19T12:47:11;13.02;;;7.55;;
23155;SDS011;11746;50.876;4.246;2023-06-19T12:49:38;8.90;;;6.32;;
23155;SDS011;11746;50.876;4.246;2023-06-19T12:52:04;10.15;;;6.32;;
23155;SDS011;11746;50.876;4.246;2023-06-19T12:54:30;9.15;;;6.82;;
23155;SDS011;11746;50.876;4.246;2023-06-19T12:56:56;10.40;;;6.50;;
23155;SDS011;11746;50.876;4.246;2023-06-19T12:59:22;8.38;;;6.13;;
23155;SDS011;11746;50.876;4.246;2023-06-19T13:01:48;9.80;;;7.05;;
23155;SDS011;11746;50.876;4.246;2023-06-19T13:04:14;10.60;;;7.20;;
23155;SDS011;11746;50.876;4.246;2023-06-19T13:06:40;10.40;;;7.25;;
23155;SDS011;11746;50.876;4.246;2023-06-19T13:09:06;10.35;;;7.07;;
23155;SDS011;11746;50.876;4.246;2023-06-19T13:11:32;12.27;;;8.07;;
23155;SDS011;11746;50.876;4.246;2023-06-19T13:13:59;10.27;;;7.35;;
23155;SDS011;11746;50.876;4.246;2023-06-19T13:16:26;8.68;;;6.40;;
23155;SDS011;11746;50.876;4.246;2023-06-19T13:18:52;11.38;;;7.82;;
23155;SDS011;11746;50.876;4.246;2023-06-19T13:21:18;13.93;;;8.20;;
23155;SDS011;11746;50.876;4.246;2023-06-19T13:23:44;10.68;;;7.32;;
23155;SDS011;11746;50.876;4.246;2023-06-19T13:26:10;14.73;;;7.85;;
23155;SDS011;11746;50.876;4.246;2023-06-19T13:28:36;10.57;;;6.28;;
23155;SDS011;11746;50.876;4.246;2023-06-19T13:31:02;9.90;;;5.93;;
23155;SDS011;11746;50.876;4.246;2023-06-19T13:33:28;9.52;;;6.07;;
23155;SDS011;11746;50.876;4.246;2023-06-19T13:35:54;8.65;;;6.05;;
23155;SDS011;11746;50.876;4.246;2023-06-19T13:38:20;41.08;;;7.30;;
23155;SDS011;11746;50.876;4.246;2023-06-19T13:40:46;8.93;;;5.97;;
23155;SDS011;11746;50.876;4.246;2023-06-19T13:43:12;7.95;;;5.45;;
23155;SDS011;11746;50.876;4.246;2023-06-19T13:45:39;7.72;;;5.65;;
23155;SDS011;11746;50.876;4.246;2023-06-19T13:48:05;8.63;;;4.75;;
23155;SDS011;11746;50.876;4.246;2023-06-19T13:50:32;7.13;;;4.13;;
23155;SDS011;11746;50.876;4.246;2023-06-19T13:52:58;12.50;;;4.95;;
23155;SDS011;11746;50.876;4.246;2023-06-19T13:55:25;6.38;;;4.50;;
23155;SDS011;11746;50.876;4.246;2023-06-19T13:57:51;8.50;;;5.00;;
23155;SDS011;11746;50.876;4.246;2023-06-19T14:00:17;5.57;;;4.50;;
23155;SDS011;11746;50.876;4.246;2023-06-19T14:02:44;8.73;;;4.68;;
23155;SDS011;11746;50.876;4.246;2023-06-19T14:05:10;6.43;;;4.07;;
23155;SDS011;11746;50.876;4.246;2023-06-19T14:07:40;15.63;;;4.75;;
23155;SDS011;11746;50.876;4.246;2023-06-19T14:10:07;7.60;;;4.45;;
23155;SDS011;11746;50.876;4.246;2023-06-19T14:12:34;5.60;;;4.10;;
23155;SDS011;11746;50.876;4.246;2023-06-19T14:14:59;5.93;;;4.15;;
23155;SDS011;11746;50.876;4.246;2023-06-19T14:17:25;7.43;;;4.53;;
23155;SDS011;11746;50.876;4.246;2023-06-19T14:19:51;8.27;;;4.18;;
23155;SDS011;11746;50.876;4.246;2023-06-19T14:22:18;6.18;;;3.88;;
23155;SDS011;11746;50.876;4.246;2023-06-19T14:24:44;7.28;;;4.00;;
23155;SDS011;11746;50.876;4.246;2023-06-19T14:27:10;7.45;;;4.20;;
23155;SDS011;11746;50.876;4.246;2023-06-19T14:29:36;8.48;;;4.07;;
23155;SDS011;11746;50.876;4.246;2023-06-19T14:32:02;7.40;;;4.63;;
23155;SDS011;11746;50.876;4.246;2023-06-19T14:34:28;6.47;;;3.95;;
23155;SDS011;11746;50.876;4.246;2023-06-19T14:36:55;11.45;;;4.35;;
23155;SDS011;11746;50.876;4.246;2023-06-19T14:39:21;5.30;;;4.30;;
23155;SDS011;11746;50.876;4.246;2023-06-19T14:41:47;5.50;;;3.80;;
23155;SDS011;11746;50.876;4.246;2023-06-19T14:44:13;7.75;;;4.03;;
23155;SDS011;11746;50.876;4.246;2023-06-19T14:46:40;5.00;;;3.58;;
23155;SDS011;11746;50.876;4.246;2023-06-19T14:49:06;5.47;;;3.88;;
23155;SDS011;11746;50.876;4.246;2023-06-19T14:51:35;6.20;;;4.05;;